Time;durP1;ratioP1;P1;durP2;ratioP2;P2;SDS_P1;SDS_P2;PMS_P1;PMS_P2;Temp;Humidity;BMP_temperature;BMP_pressure;BME280_temperature;BME280_humidity;BME280_pressure;Samples;Min_cycle;Max_cycle;Signal;HPM_P1;HPM_P2
2021/07/12 00:01:24;;;;;;;18.77;14.40;;;;;;;18.15;79.03;101420.41;5075775;28;20036;-57
2021/07/12 00:03:52;;;;;;;17.73;14.63;;;;;;;18.17;79.37;101423.78;5073727;28;20041;-52
2021/07/12 00:06:19;;;;;;;18.42;14.18;;;;;;;18.16;79.13;101422.09;5072236;28;20064;-48
2021/07/12 00:08:45;;;;;;;17.55;14.55;;;;;;;18.13;79.08;101419.69;5057345;28;20467;-54
2021/07/12 00:11:13;;;;;;;19.88;15.43;;;;;;;18.18;79.08;101412.16;5072145;28;20052;-48
2021/07/12 00:13:39;;;;;;;17.13;14.32;;;;;;;18.10;79.32;101423.47;5054852;28;20045;-50
2021/07/12 00:16:06;;;;;;;20.25;14.95;;;;;;;18.02;79.51;101425.97;5035738;28;20075;-53
2021/07/12 00:18:33;;;;;;;19.48;15.27;;;;;;;17.92;80.11;101423.28;5073870;28;20531;-53
2021/07/12 00:21:00;;;;;;;18.85;15.50;;;;;;;17.88;80.12;101419.16;5072133;28;20060;-52
2021/07/12 00:23:27;;;;;;;20.20;15.68;;;;;;;17.88;80.44;101424.47;5054482;28;20046;-50
2021/07/12 00:25:54;;;;;;;20.15;15.50;;;;;;;17.95;80.01;101412.34;5072650;28;20067;-57
2021/07/12 00:28:21;;;;;;;19.75;15.30;;;;;;;17.94;80.05;101413.31;5074427;28;20056;-58
2021/07/12 00:30:47;;;;;;;20.15;15.85;;;;;;;17.94;80.36;101409.81;5071330;28;20048;-58
2021/07/12 00:33:14;;;;;;;20.00;15.35;;;;;;;17.92;80.32;101412.63;5074488;28;20048;-58
2021/07/12 00:35:41;;;;;;;19.45;15.93;;;;;;;17.93;80.38;101406.34;5075476;28;20048;-58
2021/07/12 00:38:08;;;;;;;18.40;14.75;;;;;;;17.88;80.75;101406.69;5074906;28;20048;-58
2021/07/12 00:40:35;;;;;;;19.85;15.07;;;;;;;17.87;80.83;101401.50;5074071;28;20071;-58
2021/07/12 00:43:04;;;;;;;18.85;15.55;;;;;;;17.86;80.88;101398.00;5072906;28;20048;-58
2021/07/12 00:45:31;;;;;;;17.63;14.70;;;;;;;17.86;80.91;101399.81;5055997;28;20491;-58
2021/07/12 00:47:59;;;;;;;19.55;16.45;;;;;;;17.86;81.12;101399.81;5055320;28;20083;-58
2021/07/12 00:50:31;;;;;;;22.58;16.08;;;;;;;17.90;80.80;101393.25;5073017;28;20036;-58
2021/07/12 00:52:58;;;;;;;18.80;15.88;;;;;;;17.87;80.23;101383.75;5038020;28;20094;-51
2021/07/12 00:55:38;;;;;;;20.98;15.32;;;;;;;17.87;80.28;101390.88;5053604;28;20057;-54
2021/07/12 00:58:07;;;;;;;25.08;15.73;;;;;;;17.79;80.66;101383.53;5070945;28;20114;-52
2021/07/12 01:00:35;;;;;;;18.67;15.98;;;;;;;17.78;80.49;101378.38;5070136;28;20060;-52
2021/07/12 01:03:03;;;;;;;19.98;15.88;;;;;;;17.78;80.65;101381.88;5054856;28;20052;-58
2021/07/12 01:05:31;;;;;;;20.98;16.00;;;;;;;17.74;80.89;101380.47;5055899;28;20048;-58
2021/07/12 01:08:02;;;;;;;20.85;16.63;;;;;;;17.73;80.71;101363.66;5054584;28;20140;-57
2021/07/12 01:10:31;;;;;;;22.48;16.88;;;;;;;17.74;80.76;101360.03;5053665;28;20611;-57
2021/07/12 01:13:18;;;;;;;21.00;16.42;;;;;;;17.70;80.79;101357.78;5071802;28;20044;-57
2021/07/12 01:16:10;;;;;;;18.63;15.35;;;;;;;17.71;80.76;101360.28;5074220;28;20492;-57
2021/07/12 01:18:42;;;;;;;20.52;16.42;;;;;;;17.68;80.78;101352.59;5071575;28;20040;-52
2021/07/12 01:21:50;;;;;;;20.08;15.98;;;;;;;17.65;80.82;101355.50;5071002;28;20048;-49
2021/07/12 01:25:09;;;;;;;20.35;15.88;;;;;;;17.61;81.05;101354.09;5070950;28;20377;-49
2021/07/12 01:28:03;;;;;;;24.42;16.52;;;;;;;17.51;81.78;101353.22;5009679;28;20116;-57
2021/07/12 01:31:00;;;;;;;21.23;15.68;;;;;;;17.60;81.61;101352.44;5008256;28;20058;-57
2021/07/12 01:33:35;;;;;;;20.33;15.38;;;;;;;17.66;81.10;101353.69;5069268;28;20167;-52
2021/07/12 01:36:06;;;;;;;21.98;16.60;;;;;;;17.66;80.90;101353.69;5055235;28;20049;-51
2021/07/12 01:39:06;;;;;;;19.73;15.75;;;;;;;17.64;81.26;101353.84;5053609;28;20459;-50
2021/07/12 01:41:48;;;;;;;20.85;15.40;;;;;;;17.62;81.41;101353.13;5071052;28;20489;-52
2021/07/12 01:44:32;;;;;;;17.70;13.85;;;;;;;17.63;81.21;101346.81;5069810;28;20037;-49
2021/07/12 01:47:07;;;;;;;17.15;14.00;;;;;;;17.60;81.25;101344.44;5055961;28;20086;-57
2021/07/12 01:49:48;;;;;;;19.95;15.65;;;;;;;17.59;81.26;101340.09;5056009;28;20488;-57
2021/07/12 01:52:34;;;;;;;19.60;15.23;;;;;;;17.60;81.17;101331.16;5054565;28;20055;-57
2021/07/12 01:55:11;;;;;;;18.80;14.27;;;;;;;17.62;81.25;101331.00;5053203;28;20044;-57
2021/07/12 01:58:01;;;;;;;20.25;15.02;;;;;;;17.55;81.33;101334.19;5039465;28;20056;-57
2021/07/12 02:00:28;;;;;;;23.60;15.70;;;;;;;17.52;81.25;101337.13;5053134;28;20075;-57
2021/07/12 02:02:57;;;;;;;17.95;14.60;;;;;;;17.49;81.36;101333.88;5070801;28;20040;-57
2021/07/12 02:05:27;;;;;;;19.90;15.32;;;;;;;17.49;81.21;101334.75;5055107;28;20048;-57
2021/07/12 02:07:55;;;;;;;19.20;14.80;;;;;;;17.48;81.05;101335.72;5087238;28;20070;-57
2021/07/12 02:10:26;;;;;;;20.85;15.40;;;;;;;17.45;81.27;101328.00;5072421;28;20052;-51
2021/07/12 02:12:54;;;;;;;19.92;15.07;;;;;;;17.46;81.21;101328.84;5072232;28;20044;-49
2021/07/12 02:15:22;;;;;;;18.15;14.45;;;;;;;17.45;81.56;101332.47;5070555;28;20055;-52
2021/07/12 02:17:50;;;;;;;21.50;16.10;;;;;;;17.46;81.52;101331.50;5074415;28;20052;-52
2021/07/12 02:20:19;;;;;;;19.70;15.60;;;;;;;17.38;82.26;101329.50;5091632;28;20044;-57
2021/07/12 02:22:47;;;;;;;18.65;15.60;;;;;;;17.32;81.75;101333.53;5074066;28;20409;-57
2021/07/12 02:25:15;;;;;;;22.33;16.20;;;;;;;17.31;82.07;101337.16;5089993;28;20059;-51
2021/07/12 02:27:46;;;;;;;24.55;17.70;;;;;;;17.32;82.57;101338.84;5073716;28;20039;-48
2021/07/12 02:30:13;;;;;;;21.38;16.33;;;;;;;17.24;82.60;101336.00;5091302;28;20109;-51
2021/07/12 02:32:40;;;;;;;23.23;17.60;;;;;;;17.15;82.74;101331.47;5089728;28;20044;-49
2021/07/12 02:35:09;;;;;;;21.75;16.70;;;;;;;17.13;82.57;101322.81;5071171;28;20474;-50
2021/07/12 02:37:38;;;;;;;22.58;16.90;;;;;;;17.14;82.86;101320.00;5073213;28;20109;-56
2021/07/12 02:40:10;;;;;;;22.15;17.40;;;;;;;17.07;83.11;101316.19;5091569;28;20108;-57
2021/07/12 02:42:42;;;;;;;23.20;16.65;;;;;;;17.03;83.20;101315.59;5089693;28;20047;-52
2021/07/12 02:45:10;;;;;;;20.90;15.23;;;;;;;17.05;82.58;101302.19;5070332;28;20048;-50
2021/07/12 02:47:38;;;;;;;22.10;16.67;;;;;;;17.08;82.62;101304.56;5092947;28;20052;-53
2021/07/12 02:50:07;;;;;;;22.10;16.60;;;;;;;17.03;82.53;101297.00;5091401;28;20413;-52
2021/07/12 02:52:57;;;;;;;20.80;16.33;;;;;;;17.02;82.71;101308.59;5089681;28;20036;-50
2021/07/12 02:55:24;;;;;;;20.75;15.77;;;;;;;16.92;83.48;101309.50;5071248;28;20146;-53
2021/07/12 02:57:51;;;;;;;20.70;16.40;;;;;;;16.92;83.62;101307.72;5071331;28;20091;-51
2021/07/12 03:00:18;;;;;;;21.45;16.52;;;;;;;16.94;83.63;101304.94;5074043;28;20052;-50
2021/07/12 03:02:44;;;;;;;21.48;16.60;;;;;;;16.88;83.75;101303.59;5073350;28;20036;-51
2021/07/12 03:05:12;;;;;;;20.52;16.17;;;;;;;16.86;83.83;101301.06;5071851;28;20040;-49
2021/07/12 03:07:59;;;;;;;20.90;15.90;;;;;;;16.80;83.61;101304.25;5087416;28;20060;-53
2021/07/12 03:10:30;;;;;;;20.90;16.38;;;;;;;16.77;83.67;101298.34;5089499;28;20039;-50
2021/07/12 03:13:02;;;;;;;21.23;16.88;;;;;;;16.78;83.19;101292.06;5092153;28;20048;-53
2021/07/12 03:15:40;;;;;;;;;;;;;;;16.78;83.92;101289.41;5089320;28;20850;-48
2021/07/12 03:18:41;;;;;;;22.30;15.82;;;;;;;16.78;83.37;101281.44;5089153;28;19920;-52
2021/07/12 03:21:08;;;;;;;21.00;15.55;;;;;;;16.64;83.52;101278.13;5072016;28;20050;-52
2021/07/12 03:23:39;;;;;;;21.38;16.77;;;;;;;16.67;83.45;101279.69;5090793;28;20044;-51
2021/07/12 03:26:07;;;;;;;20.55;16.10;;;;;;;16.66;82.85;101275.34;5092258;28;20400;-52
2021/07/12 03:28:35;;;;;;;20.67;15.77;;;;;;;16.60;83.31;101273.22;5071891;28;20059;-53
2021/07/12 03:31:02;;;;;;;20.42;15.68;;;;;;;16.66;83.46;101280.66;5069543;28;20079;-52
2021/07/12 03:33:30;;;;;;;20.27;16.20;;;;;;;16.62;83.18;101280.09;5072396;28;20040;-53
2021/07/12 03:35:58;;;;;;;26.50;17.27;;;;;;;16.60;83.69;101273.22;5093132;28;20051;-53
2021/07/12 03:38:25;;;;;;;21.67;16.80;;;;;;;16.56;84.13;101273.50;5076105;28;20048;-58
2021/07/12 03:40:52;;;;;;;21.90;16.40;;;;;;;16.55;84.05;101273.59;5094022;28;20044;-58
2021/07/12 03:43:20;;;;;;;23.92;17.35;;;;;;;16.49;84.03;101271.47;5096300;28;20680;-58
2021/07/12 03:45:55;;;;;;;20.25;15.63;;;;;;;16.51;83.73;101273.03;5092441;28;20052;-58
2021/07/12 03:48:43;;;;;;;20.42;16.80;;;;;;;16.54;84.14;101277.25;5094003;28;20117;-51
2021/07/12 03:51:13;;;;;;;22.30;17.35;;;;;;;16.45;84.85;101284.13;5093244;28;20052;-50
2021/07/12 03:53:40;;;;;;;22.95;18.52;;;;;;;16.36;86.10;101274.28;5077426;28;20048;-57
2021/07/12 03:56:07;;;;;;;24.65;17.35;;;;;;;16.42;85.38;101270.31;5093569;28;20109;-56
2021/07/12 03:58:34;;;;;;;22.58;18.23;;;;;;;16.35;85.36;101273.44;5093947;28;20040;-57
2021/07/12 04:01:00;;;;;;;22.23;16.58;;;;;;;16.38;84.98;101277.66;5096256;28;20052;-57
2021/07/12 04:03:27;;;;;;;26.83;18.73;;;;;;;16.39;86.08;101271.41;5078080;28;20411;-52
2021/07/12 04:05:54;;;;;;;21.98;17.85;;;;;;;16.42;85.53;101263.16;5093408;28;20036;-49
2021/07/12 04:08:21;;;;;;;23.15;17.52;;;;;;;16.36;85.93;101267.19;5092860;28;20044;-50
2021/07/12 04:10:48;;;;;;;23.30;18.02;;;;;;;16.41;85.00;101268.59;5073969;28;20052;-51
2021/07/12 04:13:15;;;;;;;22.27;18.48;;;;;;;16.41;85.04;101264.13;5092785;28;20051;-48
2021/07/12 04:15:43;;;;;;;23.63;17.42;;;;;;;16.39;85.31;101269.56;5091170;28;20416;-52
2021/07/12 04:18:10;;;;;;;24.95;17.88;;;;;;;16.37;85.29;101273.31;5092325;28;20113;-52
2021/07/12 04:20:41;;;;;;;21.90;17.63;;;;;;;16.45;84.85;101272.69;5077097;28;20466;-50
2021/07/12 04:23:09;;;;;;;25.30;18.98;;;;;;;16.45;85.34;101265.56;5094933;28;20055;-50
2021/07/12 04:25:36;;;;;;;23.77;19.75;;;;;;;16.45;85.48;101275.34;5074314;28;20051;-57
2021/07/12 04:28:04;;;;;;;28.90;21.77;;;;;;;16.45;85.84;101275.34;5093866;28;20044;-57
2021/07/12 04:30:31;;;;;;;27.60;21.60;;;;;;;16.49;86.52;101274.13;5094213;28;20400;-57
2021/07/12 04:32:57;;;;;;;28.98;22.65;;;;;;;16.56;86.24;101267.31;5095333;28;20105;-58
2021/07/12 04:35:25;;;;;;;31.10;23.42;;;;;;;16.55;86.53;101271.78;5095061;28;20089;-57
2021/07/12 04:37:51;;;;;;;31.40;24.30;;;;;;;16.55;86.91;101270.94;5094729;28;20044;-58
2021/07/12 04:40:18;;;;;;;28.98;23.65;;;;;;;16.54;86.82;101269.28;5074858;28;20093;-58
2021/07/12 04:42:45;;;;;;;30.70;22.63;;;;;;;16.51;86.67;101270.38;5093936;28;20048;-58
2021/07/12 04:45:13;;;;;;;31.20;23.88;;;;;;;16.57;86.84;101274.31;5091301;28;20086;-57
2021/07/12 04:47:40;;;;;;;35.97;25.77;;;;;;;16.60;87.42;101266.09;5093016;28;20044;-57
2021/07/12 04:50:08;;;;;;;35.95;24.75;;;;;;;16.68;87.49;101270.75;5092560;28;20093;-57
2021/07/12 04:52:35;;;;;;;39.38;25.63;;;;;;;16.76;87.26;101270.13;5092958;28;20082;-58
2021/07/12 04:55:07;;;;;;;40.20;26.90;;;;;;;16.80;87.37;101266.22;5074216;28;20103;-57
2021/07/12 04:57:35;;;;;;;37.40;26.50;;;;;;;16.83;87.46;101263.31;5074536;28;20052;-58
2021/07/12 05:00:04;;;;;;;37.95;27.05;;;;;;;16.92;87.23;101265.22;5073369;28;20043;-58
2021/07/12 05:02:31;;;;;;;35.15;26.13;;;;;;;16.94;87.32;101257.94;5094691;28;20075;-58
2021/07/12 05:04:58;;;;;;;35.10;26.08;;;;;;;16.97;87.61;101259.50;5094584;28;20541;-58
2021/07/12 05:07:25;;;;;;;31.98;24.55;;;;;;;17.03;87.37;101249.19;5091888;28;20591;-52
2021/07/12 05:09:53;;;;;;;30.17;24.58;;;;;;;17.08;87.30;101251.44;5090675;28;20056;-51
2021/07/12 05:12:21;;;;;;;33.67;24.42;;;;;;;17.15;87.11;101249.94;5073544;28;20753;-52
2021/07/12 05:14:48;;;;;;;33.55;25.08;;;;;;;17.20;87.29;101249.53;5088178;28;20118;-51
2021/07/12 05:17:15;;;;;;;30.35;23.65;;;;;;;17.28;87.52;101243.56;5091068;28;20538;-52
2021/07/12 05:19:42;;;;;;;30.17;23.95;;;;;;;17.32;87.32;101245.81;5091566;28;20459;-52
2021/07/12 05:22:09;;;;;;;35.35;25.30;;;;;;;17.36;87.55;101244.56;5091201;28;20047;-51
2021/07/12 05:24:36;;;;;;;33.75;26.67;;;;;;;17.45;87.51;101239.41;5092956;28;20051;-52
2021/07/12 05:27:04;;;;;;;35.40;25.60;;;;;;;17.53;87.37;101235.13;5091677;28;20067;-51
2021/07/12 05:29:30;;;;;;;34.60;25.77;;;;;;;17.58;87.00;101245.34;5089537;28;20044;-53
2021/07/12 05:31:57;;;;;;;34.88;27.13;;;;;;;17.65;87.06;101238.47;5090771;28;20485;-54
2021/07/12 05:34:24;;;;;;;38.67;27.52;;;;;;;17.72;86.83;101244.09;5073404;28;20094;-50
2021/07/12 05:36:51;;;;;;;38.42;29.23;;;;;;;17.79;86.50;101234.59;5094023;28;20062;-57
2021/07/12 05:39:20;;;;;;;39.25;28.08;;;;;;;17.87;86.33;101241.88;5092623;28;20094;-57
2021/07/12 05:41:47;;;;;;;37.28;27.88;;;;;;;17.91;86.37;101237.97;5091469;28;20101;-57
2021/07/12 05:44:14;;;;;;;37.65;28.02;;;;;;;17.98;85.99;101228.47;5072359;28;20052;-57
2021/07/12 05:46:40;;;;;;;35.40;28.10;;;;;;;18.05;85.67;101226.09;5090139;28;20052;-59
2021/07/12 05:49:07;;;;;;;33.50;26.63;;;;;;;18.16;85.46;101222.47;5093745;28;20470;-57
2021/07/12 05:51:34;;;;;;;36.20;27.35;;;;;;;18.19;85.18;101219.53;5073761;28;20048;-51
2021/07/12 05:54:02;;;;;;;37.10;29.48;;;;;;;18.27;85.32;101221.47;5072227;28;20526;-51
2021/07/12 05:56:29;;;;;;;37.08;29.63;;;;;;;18.36;85.09;101213.47;5089276;28;20055;-52
2021/07/12 05:58:56;;;;;;;34.40;28.15;;;;;;;18.48;84.39;101210.69;5090009;28;20156;-50
2021/07/12 06:01:42;;;;;;;33.08;27.90;;;;;;;18.52;84.85;101207.56;5090048;28;20408;-52
2021/07/12 06:04:10;;;;;;;33.42;26.38;;;;;;;18.57;84.51;101209.81;5090817;28;20090;-52
2021/07/12 06:06:37;;;;;;;34.63;26.73;;;;;;;18.68;83.98;101211.47;5090566;28;20396;-53
2021/07/12 06:09:04;;;;;;;34.10;27.20;;;;;;;18.70;83.16;101207.66;5090213;28;20093;-53
2021/07/12 06:11:31;;;;;;;31.10;25.23;;;;;;;18.87;83.09;101211.41;5092955;28;20147;-52
2021/07/12 06:13:58;;;;;;;35.20;27.02;;;;;;;18.97;82.68;101211.41;5074183;28;20051;-51
2021/07/12 06:16:25;;;;;;;31.88;26.45;;;;;;;19.05;82.72;101218.69;5088131;28;20051;-50
2021/07/12 06:18:52;;;;;;;30.83;25.45;;;;;;;19.09;81.32;101207.56;5090363;28;20047;-49
2021/07/12 06:21:19;;;;;;;27.48;23.00;;;;;;;19.19;81.34;101206.69;5090715;28;20040;-56
2021/07/12 06:23:46;;;;;;;30.60;25.27;;;;;;;19.32;80.61;101217.84;5092472;28;20544;-52
2021/07/12 06:26:13;;;;;;;29.48;23.75;;;;;;;19.42;80.49;101218.63;5074552;28;20054;-53
2021/07/12 06:28:48;;;;;;;30.40;26.17;;;;;;;19.51;80.08;101226.72;5110051;27;20369;-53
2021/07/12 06:31:14;;;;;;;30.15;25.27;;;;;;;19.56;79.05;101227.94;5110225;28;20051;-50
2021/07/12 06:33:42;;;;;;;28.42;24.65;;;;;;;19.66;78.83;101230.59;5110230;28;20048;-53
2021/07/12 06:36:08;;;;;;;28.17;24.30;;;;;;;19.72;78.97;101219.28;5107852;28;20518;-53
2021/07/12 06:38:35;;;;;;;28.92;23.92;;;;;;;19.85;78.17;101224.31;5107163;28;20055;-51
2021/07/12 06:41:02;;;;;;;25.88;22.40;;;;;;;19.96;77.79;101225.91;5107076;28;20052;-53
2021/07/12 06:43:29;;;;;;;26.55;23.75;;;;;;;20.04;77.54;101225.97;5105900;28;20383;-53
2021/07/12 06:45:59;;;;;;;25.65;22.85;;;;;;;20.09;77.93;101225.50;5104278;28;20411;-57
2021/07/12 06:48:27;;;;;;;29.95;24.10;;;;;;;20.21;76.86;101224.28;5109007;28;20164;-52
2021/07/12 06:50:55;;;;;;;29.80;23.35;;;;;;;20.29;75.40;101215.50;5106756;28;20080;-50
2021/07/12 06:53:32;;;;;;;27.30;22.80;;;;;;;20.51;74.35;101213.34;5107269;28;20113;-49
2021/07/12 06:55:59;;;;;;;26.58;23.65;;;;;;;20.55;74.51;101212.03;5107456;28;20044;-52
2021/07/12 06:58:26;;;;;;;24.77;21.98;;;;;;;20.66;74.33;101206.41;5109492;28;20048;-50
2021/07/12 07:00:53;;;;;;;24.95;22.05;;;;;;;20.84;73.99;101205.56;5105478;28;20036;-51
2021/07/12 07:03:20;;;;;;;24.02;21.27;;;;;;;20.96;72.20;101206.94;5105981;28;20127;-51
2021/07/12 07:05:47;;;;;;;22.60;20.13;;;;;;;21.08;72.97;101211.00;5106525;28;20039;-51
2021/07/12 07:08:14;;;;;;;23.33;18.95;;;;;;;21.14;71.08;101214.88;5106828;28;20405;-51
2021/07/12 07:10:41;;;;;;;21.23;17.95;;;;;;;21.23;71.23;101208.56;5088137;28;20052;-51
2021/07/12 07:13:08;;;;;;;21.10;18.10;;;;;;;21.24;70.17;101204.06;5106420;28;20048;-57
2021/07/12 07:15:35;;;;;;;21.20;17.90;;;;;;;21.25;69.64;101205.72;5086933;28;20452;-52
2021/07/12 07:18:02;;;;;;;32.22;18.80;;;;;;;21.38;68.82;101202.63;5107619;28;20040;-58
2021/07/12 07:20:28;;;;;;;20.25;18.08;;;;;;;21.52;67.81;101203.81;5107373;28;20046;-58
2021/07/12 07:22:55;;;;;;;20.77;17.52;;;;;;;21.61;67.90;101194.84;5107149;28;20548;-58
2021/07/12 07:25:22;;;;;;;20.38;17.10;;;;;;;21.76;66.81;101198.56;5107195;28;20058;-58
2021/07/12 07:27:49;;;;;;;21.33;16.00;;;;;;;21.85;67.38;101196.72;5108448;28;20506;-58
2021/07/12 07:30:16;;;;;;;25.38;18.13;;;;;;;22.08;65.50;101199.56;5109543;28;20048;-58
2021/07/12 07:32:43;;;;;;;19.50;17.02;;;;;;;22.22;65.68;101200.75;5109368;28;20056;-58
2021/07/12 07:35:11;;;;;;;20.65;18.45;;;;;;;22.35;65.09;101202.94;5109120;28;20123;-58
2021/07/12 07:37:37;;;;;;;22.02;17.98;;;;;;;22.41;65.26;101202.25;5108064;28;20051;-58
2021/07/12 07:40:07;;;;;;;20.85;18.63;;;;;;;22.64;65.08;101198.88;5094895;28;20055;-58
2021/07/12 07:42:34;;;;;;;20.17;17.52;;;;;;;22.77;64.57;101188.47;5093045;28;20056;-58
2021/07/12 07:45:01;;;;;;;20.25;17.45;;;;;;;22.87;61.96;101182.06;5091554;28;20056;-58
2021/07/12 07:47:28;;;;;;;20.65;16.48;;;;;;;22.93;62.31;101179.53;5092310;28;20053;-58
2021/07/12 07:50:15;;;;;;;17.73;15.50;;;;;;;23.23;62.47;101168.19;5093903;28;20052;-58
2021/07/12 07:52:42;;;;;;;20.17;16.25;;;;;;;23.32;60.43;101169.00;5092447;28;20823;-52
2021/07/12 07:55:11;;;;;;;18.85;15.55;;;;;;;23.47;60.33;101167.22;5094351;28;20070;-53
2021/07/12 07:57:42;;;;;;;17.00;14.38;;;;;;;23.59;60.71;101164.97;5092262;28;20040;-53
2021/07/12 08:00:14;;;;;;;19.10;16.90;;;;;;;23.60;59.71;101166.63;5089903;28;20040;-53
2021/07/12 08:02:41;;;;;;;18.52;15.00;;;;;;;23.83;59.50;101147.00;5091515;28;20051;-53
2021/07/12 08:05:08;;;;;;;15.38;13.73;;;;;;;24.00;58.77;101153.94;5094790;28;20071;-53
2021/07/12 08:07:36;;;;;;;18.42;14.98;;;;;;;24.22;59.03;101148.72;5091793;28;20533;-52
2021/07/12 08:10:08;;;;;;;17.38;14.48;;;;;;;24.45;56.84;101154.84;5073574;28;20411;-54
2021/07/12 08:12:35;;;;;;;15.75;12.80;;;;;;;24.55;54.53;101154.56;5094022;28;20134;-58
2021/07/12 08:15:06;;;;;;;15.57;13.38;;;;;;;24.50;54.79;101153.47;5092944;28;20071;-53
2021/07/12 08:17:33;;;;;;;13.45;10.00;;;;;;;24.77;54.14;101146.63;5090510;28;20050;-54
2021/07/12 08:19:59;;;;;;;13.75;10.75;;;;;;;24.74;52.65;101149.69;5090442;28;20483;-51
2021/07/12 08:22:49;;;;;;;15.40;12.40;;;;;;;24.76;53.07;101148.50;5091638;28;20083;-46
2021/07/12 08:25:17;;;;;;;13.52;9.93;;;;;;;24.95;53.23;101151.63;5090321;28;20522;-51
2021/07/12 08:27:44;;;;;;;18.27;12.02;;;;;;;25.26;53.78;101154.06;5091199;28;20048;-58
2021/07/12 08:30:12;;;;;;;15.68;13.85;;;;;;;25.53;53.07;101148.19;5094973;28;20052;-58
2021/07/12 08:32:39;;;;;;;14.63;11.05;;;;;;;25.70;51.34;101143.34;5094644;28;20051;-58
2021/07/12 08:35:07;;;;;;;13.35;10.35;;;;;;;25.61;50.40;101142.66;5092631;28;20059;-58
2021/07/12 08:37:34;;;;;;;9.48;6.93;;;;;;;25.75;51.09;101147.13;5091017;28;20071;-53
2021/07/12 08:40:04;;;;;;;9.82;6.70;;;;;;;25.90;50.58;101138.16;5093274;28;20525;-59
2021/07/12 08:42:30;;;;;;;11.15;7.60;;;;;;;25.94;50.09;101128.66;5093952;28;20052;-51
2021/07/12 08:44:57;;;;;;;13.80;11.20;;;;;;;26.26;49.24;101127.28;5092072;28;20101;-58
2021/07/12 08:47:24;;;;;;;9.88;7.35;;;;;;;26.41;48.46;101124.47;5092118;28;20055;-53
2021/07/12 08:49:51;;;;;;;9.73;7.32;;;;;;;26.47;46.70;101131.75;5090283;28;20055;-54
2021/07/12 08:52:18;;;;;;;10.25;6.28;;;;;;;26.69;47.00;101125.44;5090960;28;20055;-51
2021/07/12 08:54:45;;;;;;;10.98;7.93;;;;;;;26.79;46.45;101123.22;5072922;28;20048;-51
2021/07/12 08:57:11;;;;;;;10.57;7.00;;;;;;;26.95;45.94;101125.56;5090981;28;20120;-53
2021/07/12 08:59:40;;;;;;;40.58;10.90;;;;;;;27.03;44.93;101116.47;5092541;28;20054;-52
2021/07/12 09:02:18;;;;;;;10.73;8.13;;;;;;;26.68;44.09;101112.97;5092862;28;20093;-58
2021/07/12 09:04:53;;;;;;;9.25;6.93;;;;;;;27.04;43.13;101109.19;5092955;28;20386;-59
2021/07/12 09:07:28;;;;;;;10.20;7.10;;;;;;;26.92;44.58;101099.00;5093808;28;20048;-58
2021/07/12 09:10:09;;;;;;;10.90;7.78;;;;;;;27.05;43.47;101095.53;5092730;28;20536;-59
2021/07/12 09:12:39;;;;;;;9.32;6.45;;;;;;;27.05;43.43;101092.81;5093732;28;20052;-58
2021/07/12 09:15:08;;;;;;;10.43;6.90;;;;;;;27.08;45.23;101094.28;5090662;28;20048;-58
2021/07/12 09:17:43;;;;;;;8.02;5.70;;;;;;;27.10;44.14;101094.91;5107708;28;20044;-58
2021/07/12 09:20:12;;;;;;;9.95;6.90;;;;;;;27.24;45.97;101095.75;5074776;28;20142;-58
2021/07/12 09:22:40;;;;;;;11.93;8.40;;;;;;;27.33;44.93;101089.13;5073735;28;20052;-58
2021/07/12 09:25:11;;;;;;;11.57;8.98;;;;;;;27.13;44.81;101094.47;5093046;28;20044;-59
2021/07/12 09:27:40;;;;;;;14.65;9.80;;;;;;;27.31;44.16;101091.22;5091903;28;20048;-58
2021/07/12 09:30:09;;;;;;;13.18;7.85;;;;;;;27.51;44.96;101096.66;5092677;28;20512;-58
2021/07/12 09:32:39;;;;;;;9.63;6.68;;;;;;;27.69;43.62;101087.94;5091585;28;20514;-58
2021/07/12 09:35:09;;;;;;;10.05;7.05;;;;;;;27.41;42.90;101097.06;5091552;28;20474;-58
2021/07/12 09:37:41;;;;;;;11.10;6.78;;;;;;;27.59;42.94;101090.22;5090235;28;20504;-59
2021/07/12 09:40:10;;;;;;;14.23;7.90;;;;;;;27.76;41.99;101082.53;5073683;28;20046;-58
2021/07/12 09:42:40;;;;;;;10.07;6.97;;;;;;;27.56;41.57;101087.97;5092195;28;20471;-59
2021/07/12 09:45:08;;;;;;;8.20;5.80;;;;;;;27.45;41.66;101090.22;5090150;28;20063;-58
2021/07/12 09:47:37;;;;;;;8.48;5.88;;;;;;;27.45;42.26;101098.31;5091745;28;20096;-58
2021/07/12 09:50:16;;;;;;;8.27;6.25;;;;;;;27.44;42.81;101096.66;5092777;28;20048;-58
2021/07/12 09:52:48;;;;;;;10.98;7.07;;;;;;;27.65;41.15;101076.72;5091424;28;20137;-58
2021/07/12 09:55:41;;;;;;;16.70;8.23;;;;;;;27.60;42.01;101073.81;5091464;28;20044;-59
2021/07/12 09:58:18;;;;;;;;;;;;;;;27.81;41.52;101063.84;5091794;28;20040;-58
2021/07/12 10:00:48;;;;;;;9.50;6.97;;;;;;;27.69;40.02;101063.63;5090750;28;19959;-58
2021/07/12 10:03:17;;;;;;;11.05;5.63;;;;;;;27.66;41.11;101053.25;5091392;28;20067;-58
2021/07/12 10:05:44;;;;;;;10.60;7.07;;;;;;;27.79;40.66;101053.25;5091901;28;20482;-59
2021/07/12 10:08:11;;;;;;;10.10;7.90;;;;;;;27.93;42.13;101045.13;5108511;28;20054;-59
2021/07/12 10:10:38;;;;;;;9.15;6.60;;;;;;;28.38;41.50;101053.34;5091393;28;20047;-59
2021/07/12 10:13:05;;;;;;;10.93;7.57;;;;;;;28.45;39.91;101053.31;5090643;28;20048;-59
2021/07/12 10:15:32;;;;;;;10.75;7.43;;;;;;;28.56;39.72;101051.84;5072325;28;20063;-59
2021/07/12 10:17:59;;;;;;;8.43;5.88;;;;;;;28.86;39.58;101059.41;5090697;28;20416;-59
2021/07/12 10:20:27;;;;;;;10.00;7.80;;;;;;;28.84;39.00;101049.63;5091621;28;20494;-59
2021/07/12 10:22:57;;;;;;;13.88;10.13;;;;;;;28.82;38.20;101045.47;5090642;28;20495;-59
2021/07/12 10:25:26;;;;;;;11.20;7.97;;;;;;;28.62;39.20;101040.16;5089646;28;20048;-59
2021/07/12 10:27:58;;;;;;;11.02;7.35;;;;;;;28.58;39.10;101041.63;5092119;28;20063;-59
2021/07/12 10:30:34;;;;;;;12.95;7.68;;;;;;;28.61;39.27;101046.63;5090755;28;20043;-58
2021/07/12 10:33:12;;;;;;;9.80;7.22;;;;;;;28.90;39.05;101039.81;5091670;28;20064;-58
2021/07/12 10:35:46;;;;;;;10.82;6.97;;;;;;;28.74;39.02;101026.81;5092227;28;20398;-58
2021/07/12 10:38:15;;;;;;;13.40;7.18;;;;;;;28.73;40.37;101022.44;5090575;28;20043;-59
2021/07/12 10:40:50;;;;;;;31.67;11.80;;;;;;;28.73;39.16;101025.13;5091402;28;20055;-60
2021/07/12 10:43:35;;;;;;;17.35;8.20;;;;;;;29.14;38.69;101030.09;5090537;28;20052;-59
2021/07/12 10:46:02;;;;;;;10.93;6.82;;;;;;;29.38;37.12;101030.34;5091102;28;20054;-59
2021/07/12 10:48:35;;;;;;;10.20;6.78;;;;;;;29.54;36.67;101030.88;5090447;28;20062;-59
2021/07/12 10:51:15;;;;;;;;;;;;;;;29.18;37.91;101047.56;5092165;28;20059;-59
2021/07/12 10:53:42;;;;;;;11.50;7.22;;;;;;;29.16;38.14;101038.00;5090399;28;20309;-59
2021/07/12 10:56:14;;;;;;;13.95;8.00;;;;;;;29.18;37.26;101036.72;5090757;28;20048;-59
2021/07/12 10:58:43;;;;;;;10.45;7.95;;;;;;;29.23;35.90;101037.94;5091901;28;20054;-59
2021/07/12 11:01:15;;;;;;;12.07;7.20;;;;;;;28.99;36.88;101043.13;5087764;28;20101;-55
2021/07/12 11:03:44;;;;;;;10.43;7.32;;;;;;;28.64;37.39;101046.22;5092313;28;20075;-53
2021/07/12 11:06:20;;;;;;;9.57;5.97;;;;;;;28.73;38.09;101044.06;5090718;28;20056;-54
2021/07/12 11:08:54;;;;;;;10.18;7.53;;;;;;;28.54;38.43;101032.25;5092100;28;20522;-55
2021/07/12 11:11:23;;;;;;;10.57;6.72;;;;;;;28.92;37.39;101039.59;5089092;28;20117;-54
2021/07/12 11:14:00;;;;;;;9.10;6.05;;;;;;;28.31;37.78;101031.75;5089717;28;20043;-53
2021/07/12 11:16:37;;;;;;;7.90;5.82;;;;;;;28.63;38.83;101031.88;5094055;28;20498;-52
2021/07/12 11:19:28;;;;;;;11.85;6.60;;;;;;;28.83;36.38;101023.63;5092933;28;20556;-54
2021/07/12 11:22:14;;;;;;;8.00;5.40;;;;;;;29.07;37.49;101026.59;5092701;28;20052;-55
2021/07/12 11:25:08;;;;;;;11.70;7.22;;;;;;;28.96;38.04;101030.84;5092232;28;20040;-51
2021/07/12 11:27:36;;;;;;;10.52;7.45;;;;;;;28.94;37.60;101018.56;5093092;28;20048;-59